Time;durP1;ratioP1;P1;durP2;ratioP2;P2;SDS_P1;SDS_P2;PMS_P1;PMS_P2;Temp;Humidity;BMP_temperature;BMP_pressure;BME280_temperature;BME280_humidity;BME280_pressure;Samples;Min_cycle;Max_cycle;Signal;HPM_P1;HPM_P2
2024/01/14 00:01:38;;;;;;;13.40;6.60;;;;;;;-147.86;100.00;-17609.17;105658;1257;60825;-42
2024/01/14 00:04:06;;;;;;;20.80;7.80;;;;;;;-147.86;100.00;-17609.17;105747;1258;59677;-43
2024/01/14 00:06:34;;;;;;;21.50;6.40;;;;;;;-147.86;100.00;-17609.17;105709;1254;73134;-42
2024/01/14 00:09:01;;;;;;;16.70;6.60;;;;;;;-147.86;100.00;-17609.17;105834;1256;64050;-40
2024/01/14 00:11:29;;;;;;;20.90;6.70;;;;;;;-147.86;100.00;-17609.17;105829;1257;72641;-41
2024/01/14 00:13:57;;;;;;;15.40;6.70;;;;;;;-147.86;100.00;-17609.17;105859;1257;59820;-41
2024/01/14 00:16:25;;;;;;;15.90;6.30;;;;;;;-147.86;100.00;-17609.17;105812;1254;59557;-41
2024/01/14 00:18:53;;;;;;;14.90;5.90;;;;;;;-147.86;100.00;-17609.17;105691;1253;73013;-41
2024/01/14 00:21:21;;;;;;;17.20;6.00;;;;;;;-147.86;100.00;-17609.17;105832;1257;63933;-41
2024/01/14 00:23:49;;;;;;;23.00;6.50;;;;;;;-147.86;100.00;-17609.17;105884;1257;71383;-42
2024/01/14 00:26:17;;;;;;;17.20;6.80;;;;;;;-147.86;100.00;-17609.17;105759;1254;59769;-40
2024/01/14 00:28:45;;;;;;;21.00;6.20;;;;;;;-147.86;100.00;-17609.17;109512;1253;58913;-41
2024/01/14 00:31:12;;;;;;;24.40;7.00;;;;;;;-147.86;100.00;-17609.17;109578;1253;73002;-41
2024/01/14 00:33:40;;;;;;;18.40;6.10;;;;;;;-147.86;100.00;-17609.17;109566;1253;65202;-41
2024/01/14 00:36:08;;;;;;;18.60;5.80;;;;;;;-147.86;100.00;-17609.17;109597;1253;71421;-41
2024/01/14 00:38:37;;;;;;;17.70;6.30;;;;;;;-147.86;100.00;-17609.17;109571;1253;59654;-41
2024/01/14 00:41:05;;;;;;;17.80;6.60;;;;;;;-147.86;100.00;-17609.17;109620;1253;60007;-41
2024/01/14 00:43:32;;;;;;;14.70;6.10;;;;;;;-147.86;100.00;-17609.17;109539;1253;73071;-41
2024/01/14 00:46:00;;;;;;;20.60;6.60;;;;;;;-147.86;100.00;-17609.17;109633;1253;65180;-41
2024/01/14 00:48:28;;;;;;;23.70;6.50;;;;;;;-147.86;100.00;-17609.17;109586;1253;72759;-41
2024/01/14 00:50:56;;;;;;;15.10;5.80;;;;;;;-147.86;100.00;-17609.17;109580;1253;59640;-41
2024/01/14 00:53:24;;;;;;;15.20;6.40;;;;;;;-147.86;100.00;-17609.17;109538;1253;58826;-41
2024/01/14 00:55:52;;;;;;;20.40;6.80;;;;;;;-147.86;100.00;-17609.17;109586;1252;71150;-41
2024/01/14 00:58:20;;;;;;;17.50;6.60;;;;;;;-147.86;100.00;-17609.17;109508;1253;65415;-41
2024/01/14 01:00:48;;;;;;;18.90;6.30;;;;;;;-147.86;100.00;-17609.17;109556;1253;70197;-41
2024/01/14 01:03:15;;;;;;;20.50;6.30;;;;;;;-147.86;100.00;-17609.17;109526;1254;59302;-41
2024/01/14 01:08:42;;;;;;;17.90;7.10;;;;;;;-147.86;100.00;-17609.17;102782;1290;599368;-42
2024/01/14 01:11:10;;;;;;;22.60;7.30;;;;;;;-147.86;100.00;-17609.17;105124;1268;59334;-42
2024/01/14 01:13:38;;;;;;;20.80;6.60;;;;;;;-147.86;100.00;-17609.17;105094;1269;59384;-42
2024/01/14 01:16:06;;;;;;;18.10;6.80;;;;;;;-147.86;100.00;-17609.17;105557;1257;70723;-42
2024/01/14 01:18:34;;;;;;;17.20;6.90;;;;;;;-147.86;100.00;-17609.17;105552;1262;63920;-41
2024/01/14 01:21:04;;;;;;;20.70;7.30;;;;;;;-147.86;100.00;-17609.17;105567;1260;71396;-43
2024/01/14 01:23:32;;;;;;;24.70;7.40;;;;;;;-147.86;100.00;-17609.17;105510;1257;222810;-42
2024/01/14 01:25:59;;;;;;;21.00;6.80;;;;;;;-147.86;100.00;-17609.17;105604;1260;59721;-42
2024/01/14 01:28:27;;;;;;;17.70;6.60;;;;;;;-147.86;100.00;-17609.17;105645;1255;70569;-42
2024/01/14 01:30:54;;;;;;;16.80;6.70;;;;;;;-147.86;100.00;-17609.17;105644;1257;63919;-42
2024/01/14 01:33:22;;;;;;;18.60;7.10;;;;;;;-147.86;100.00;-17609.17;105594;1260;70491;-42
2024/01/14 01:35:50;;;;;;;18.20;7.50;;;;;;;-147.86;100.00;-17609.17;105614;1258;60382;-42
2024/01/14 01:38:18;;;;;;;23.10;7.90;;;;;;;-147.86;100.00;-17609.17;105616;1260;59637;-42
2024/01/14 01:40:47;;;;;;;27.70;8.00;;;;;;;-147.86;100.00;-17609.17;105623;1260;72326;-41
2024/01/14 01:43:15;;;;;;;17.80;7.30;;;;;;;-147.86;100.00;-17609.17;105629;1255;64114;-41
2024/01/14 01:45:44;;;;;;;17.50;6.80;;;;;;;-147.86;100.00;-17609.17;105606;1260;71662;-41
2024/01/14 01:48:12;;;;;;;16.10;7.00;;;;;;;-147.86;100.00;-17609.17;105611;1257;59694;-42
2024/01/14 01:51:52;;;;;;;23.70;7.40;;;;;;;-147.86;100.00;-17609.17;102781;1290;600176;-41
2024/01/14 01:54:22;;;;;;;17.50;7.30;;;;;;;-147.86;100.00;-17609.17;104856;1269;60395;-42
2024/01/14 01:56:51;;;;;;;21.60;7.70;;;;;;;-147.86;100.00;-17609.17;105164;1269;60065;-41
2024/01/14 01:59:19;;;;;;;22.70;7.90;;;;;;;-147.86;100.00;-17609.17;105163;1270;70756;-41
2024/01/14 02:01:46;;;;;;;18.00;6.40;;;;;;;-147.86;100.00;-17609.17;104865;1270;64438;-41
2024/01/14 02:04:14;;;;;;;22.80;7.10;;;;;;;-147.86;100.00;-17609.17;105052;1269;72653;-41
2024/01/14 03:08:34;;;;;;;24.30;8.40;;;;;;;-147.86;100.00;-17609.17;102672;1290;599899;-42
2024/01/14 03:11:02;;;;;;;14.60;7.40;;;;;;;-147.86;100.00;-17609.17;104865;1265;60399;-42
2024/01/14 03:13:30;;;;;;;17.80;6.80;;;;;;;-147.86;100.00;-17609.17;105060;1266;59963;-42
2024/01/14 03:15:58;;;;;;;15.30;7.10;;;;;;;-147.86;100.00;-17609.17;105093;1266;70979;-43
2024/01/14 03:18:26;;;;;;;19.80;7.70;;;;;;;-147.86;100.00;-17609.17;104909;1265;63968;-42
2024/01/14 03:20:54;;;;;;;17.30;7.30;;;;;;;-147.86;100.00;-17609.17;104901;1267;71559;-42
2024/01/14 03:23:22;;;;;;;17.40;7.10;;;;;;;-147.86;100.00;-17609.17;105026;1265;212713;-43
2024/01/14 03:25:50;;;;;;;18.80;7.80;;;;;;;-147.86;100.00;-17609.17;105165;1265;60008;-42
2024/01/14 03:28:17;;;;;;;16.50;7.40;;;;;;;-147.86;100.00;-17609.17;105150;1263;71013;-41
2024/01/14 03:30:46;;;;;;;17.50;7.10;;;;;;;-147.86;100.00;-17609.17;105171;1267;64330;-43
2024/01/14 03:33:14;;;;;;;17.60;7.30;;;;;;;-147.86;100.00;-17609.17;105195;1263;71392;-42
2024/01/14 03:35:43;;;;;;;18.90;7.50;;;;;;;-147.86;100.00;-17609.17;105143;1263;59701;-42
2024/01/14 03:38:11;;;;;;;19.10;7.90;;;;;;;-147.86;100.00;-17609.17;108828;1261;60079;-42
2024/01/14 03:40:39;;;;;;;23.20;8.70;;;;;;;-147.86;100.00;-17609.17;108847;1264;72163;-42
2024/01/14 03:43:06;;;;;;;30.20;9.10;;;;;;;-147.86;100.00;-17609.17;108845;1261;64045;-42
2024/01/14 03:45:34;;;;;;;25.40;8.60;;;;;;;-147.86;100.00;-17609.17;108816;1262;72684;-42
2024/01/14 03:48:03;;;;;;;20.70;7.90;;;;;;;-147.86;100.00;-17609.17;108883;1262;59315;-42
2024/01/14 03:50:31;;;;;;;18.00;7.40;;;;;;;-147.86;100.00;-17609.17;108907;1262;59993;-42
2024/01/14 03:52:59;;;;;;;27.50;8.40;;;;;;;-147.86;100.00;-17609.17;108847;1262;73043;-41
2024/01/14 03:55:26;;;;;;;17.50;8.00;;;;;;;-147.86;100.00;-17609.17;109001;1258;65167;-42
2024/01/14 03:57:54;;;;;;;19.70;6.90;;;;;;;-147.86;100.00;-17609.17;109028;1258;71382;-42
2024/01/14 04:00:21;;;;;;;19.30;7.90;;;;;;;-147.86;100.00;-17609.17;109003;1262;57507;-42
2024/01/14 04:02:49;;;;;;;22.10;8.10;;;;;;;-147.86;100.00;-17609.17;109038;1259;58842;-42
2024/01/14 04:08:22;;;;;;;15.30;6.90;;;;;;;-147.86;100.00;-17609.17;102682;1294;600263;-43
2024/01/14 04:10:51;;;;;;;20.30;7.80;;;;;;;-147.86;100.00;-17609.17;104900;1267;61707;-42
2024/01/14 04:13:19;;;;;;;21.90;7.10;;;;;;;-147.86;100.00;-17609.17;104928;1270;59356;-42
2024/01/14 04:15:47;;;;;;;15.30;7.20;;;;;;;-147.86;100.00;-17609.17;104906;1266;72231;-42
2024/01/14 04:18:15;;;;;;;16.90;7.80;;;;;;;-147.86;100.00;-17609.17;104850;1267;64324;-43
2024/01/14 04:20:43;;;;;;;15.10;6.70;;;;;;;-147.86;100.00;-17609.17;104863;1270;71414;-42
2024/01/14 04:23:11;;;;;;;15.90;7.30;;;;;;;-147.86;100.00;-17609.17;105099;1263;204533;-43
2024/01/14 04:25:38;;;;;;;19.00;7.60;;;;;;;-147.86;100.00;-17609.17;105574;1259;59395;-42
2024/01/14 04:28:06;;;;;;;14.90;7.20;;;;;;;-147.86;100.00;-17609.17;105615;1254;70972;-42
2024/01/14 04:30:34;;;;;;;16.90;7.30;;;;;;;-147.86;100.00;-17609.17;105622;1254;64037;-42
2024/01/14 04:33:03;;;;;;;14.60;6.40;;;;;;;-147.86;100.00;-17609.17;105562;1254;71699;-42
2024/01/14 05:08:11;;;;;;;;;;;;;;;-147.86;100.00;-17609.17;102798;1289;600387;-42
2024/01/14 05:10:39;;;;;;;16.80;7.70;;;;;;;-147.86;100.00;-17609.17;105151;1264;59264;-42
2024/01/14 05:13:06;;;;;;;13.60;7.50;;;;;;;-147.86;100.00;-17609.17;105128;1264;60179;-42
2024/01/14 05:15:34;;;;;;;18.00;9.30;;;;;;;-147.86;100.00;-17609.17;105086;1264;70951;-42
2024/01/14 05:18:03;;;;;;;23.10;8.90;;;;;;;-147.86;100.00;-17609.17;105056;1264;64018;-41
2024/01/14 05:20:31;;;;;;;24.30;9.10;;;;;;;-147.86;100.00;-17609.17;105104;1265;72604;-43
2024/01/14 05:22:59;;;;;;;19.70;8.80;;;;;;;-147.86;100.00;-17609.17;105079;1263;191034;-42
2024/01/14 05:25:27;;;;;;;19.90;9.40;;;;;;;-147.86;100.00;-17609.17;105976;1250;59365;-42
2024/01/14 05:27:55;;;;;;;17.50;8.90;;;;;;;-147.86;100.00;-17609.17;105953;1255;71172;-42
2024/01/14 05:30:23;;;;;;;18.40;8.80;;;;;;;-147.86;100.00;-17609.17;105986;1251;63984;-42
2024/01/14 05:32:51;;;;;;;25.50;9.90;;;;;;;-147.86;100.00;-17609.17;105892;1251;71334;-42
2024/01/14 05:35:18;;;;;;;22.80;10.30;;;;;;;-147.86;100.00;-17609.17;105938;1257;59672;-43
2024/01/14 05:37:46;;;;;;;19.50;9.20;;;;;;;-147.86;100.00;-17609.17;105997;1253;59752;-42
2024/01/14 05:40:14;;;;;;;22.70;10.20;;;;;;;-147.86;100.00;-17609.17;105937;1251;71925;-42
2024/01/14 05:42:42;;;;;;;23.40;9.70;;;;;;;-147.86;100.00;-17609.17;105992;1251;62923;-42
2024/01/14 05:45:12;;;;;;;23.10;9.50;;;;;;;-147.86;100.00;-17609.17;105987;1251;71752;-42
2024/01/14 05:47:41;;;;;;;27.00;12.00;;;;;;;-147.86;100.00;-17609.17;105936;1256;61605;-42
2024/01/14 05:50:09;;;;;;;20.50;9.30;;;;;;;-147.86;100.00;-17609.17;105993;1251;61254;-43
2024/01/14 05:52:38;;;;;;;20.80;9.80;;;;;;;-147.86;100.00;-17609.17;105995;1257;72929;-42
2024/01/14 05:55:06;;;;;;;25.40;10.40;;;;;;;-147.86;100.00;-17609.17;105926;1257;65300;-41
2024/01/14 05:57:34;;;;;;;22.00;10.40;;;;;;;-147.86;100.00;-17609.17;105980;1251;71508;-42
2024/01/14 06:00:02;;;;;;;24.30;10.60;;;;;;;-147.86;100.00;-17609.17;105985;1251;59691;-43
2024/01/14 06:02:32;;;;;;;27.70;10.90;;;;;;;-147.86;100.00;-17609.17;105942;1251;59608;-41
2024/01/14 06:05:00;;;;;;;27.40;10.70;;;;;;;-147.86;100.00;-17609.17;105781;1251;72990;-42
2024/01/14 06:07:29;;;;;;;24.50;11.20;;;;;;;-147.86;100.00;-17609.17;105922;1251;63918;-42
2024/01/14 06:09:57;;;;;;;25.30;10.80;;;;;;;-147.86;100.00;-17609.17;105930;1256;72427;-43
2024/01/14 06:12:24;;;;;;;22.10;10.50;;;;;;;-147.86;100.00;-17609.17;105966;1251;59656;-43
2024/01/14 06:14:52;;;;;;;25.10;11.60;;;;;;;-147.86;100.00;-17609.17;106028;1251;59928;-42
2024/01/14 06:17:20;;;;;;;23.00;10.30;;;;;;;-147.86;100.00;-17609.17;105935;1251;71934;-43
2024/01/14 06:19:47;;;;;;;28.40;12.20;;;;;;;-147.86;100.00;-17609.17;105908;1256;64066;-43
2024/01/14 06:22:15;;;;;;;29.70;12.00;;;;;;;-147.86;100.00;-17609.17;105916;1254;71391;-41
2024/01/14 06:24:46;;;;;;;25.80;11.60;;;;;;;-147.86;100.00;-17609.17;105876;1256;59872;-42
2024/01/14 06:27:14;;;;;;;25.10;10.90;;;;;;;-147.86;100.00;-17609.17;105878;1251;59609;-42
2024/01/14 06:29:42;;;;;;;23.00;11.20;;;;;;;-147.86;100.00;-17609.17;105983;1251;71717;-43
2024/01/14 06:32:09;;;;;;;32.50;13.70;;;;;;;-147.86;100.00;-17609.17;105896;1251;65242;-42
2024/01/14 06:34:37;;;;;;;34.70;14.30;;;;;;;-147.86;100.00;-17609.17;105869;1254;71424;-43
2024/01/14 06:37:05;;;;;;;29.00;13.90;;;;;;;-147.86;100.00;-17609.17;105979;1254;59691;-43
2024/01/14 06:39:33;;;;;;;29.00;11.90;;;;;;;-147.86;100.00;-17609.17;105931;1256;59665;-42
2024/01/14 06:42:01;;;;;;;26.70;12.40;;;;;;;-147.86;100.00;-17609.17;105930;1257;71804;-42
2024/01/14 06:44:29;;;;;;;26.90;11.20;;;;;;;-147.86;100.00;-17609.17;105909;1254;63988;-42
2024/01/14 06:46:56;;;;;;;31.20;13.80;;;;;;;-147.86;100.00;-17609.17;105881;1257;72648;-43
2024/01/14 06:49:24;;;;;;;27.20;12.90;;;;;;;-147.86;100.00;-17609.17;105891;1254;59787;-42
2024/01/14 06:51:52;;;;;;;31.40;12.10;;;;;;;-147.86;100.00;-17609.17;105918;1251;59983;-43
2024/01/14 06:54:19;;;;;;;29.20;12.10;;;;;;;-147.86;100.00;-17609.17;105918;1251;71726;-42
2024/01/14 06:56:48;;;;;;;28.60;11.60;;;;;;;-147.86;100.00;-17609.17;105960;1251;63901;-42
2024/01/14 06:59:21;;;;;;;32.20;13.30;;;;;;;-147.86;100.00;-17609.17;105914;1251;72636;-42
2024/01/14 07:01:49;;;;;;;27.90;12.20;;;;;;;-147.86;100.00;-17609.17;105895;1254;59742;-42
2024/01/14 07:04:17;;;;;;;27.80;12.20;;;;;;;-147.86;100.00;-17609.17;105892;1256;59775;-42
2024/01/14 07:06:45;;;;;;;30.60;12.50;;;;;;;-147.86;100.00;-17609.17;105951;1251;71687;-42
2024/01/14 07:09:13;;;;;;;28.90;13.10;;;;;;;-147.86;100.00;-17609.17;105933;1256;65114;-42
2024/01/14 07:11:41;;;;;;;26.40;11.70;;;;;;;-147.86;100.00;-17609.17;105911;1256;72226;-42
2024/01/14 07:14:09;;;;;;;28.40;12.60;;;;;;;-147.86;100.00;-17609.17;105903;1253;60286;-43
2024/01/14 07:16:37;;;;;;;30.80;13.00;;;;;;;-147.86;100.00;-17609.17;105848;1256;59563;-42
2024/01/14 07:19:04;;;;;;;33.10;13.30;;;;;;;-147.86;100.00;-17609.17;105928;1251;71813;-43
2024/01/14 07:21:32;;;;;;;28.70;13.00;;;;;;;-147.86;100.00;-17609.17;105958;1257;63932;-42
2024/01/14 07:24:00;;;;;;;25.90;10.90;;;;;;;-147.86;100.00;-17609.17;105926;1254;71380;-43
2024/01/14 07:26:29;;;;;;;26.50;12.00;;;;;;;-147.86;100.00;-17609.17;105941;1253;59663;-43
2024/01/14 07:28:57;;;;;;;26.70;11.70;;;;;;;-147.86;100.00;-17609.17;105969;1255;59679;-43
2024/01/14 07:31:30;;;;;;;27.70;11.70;;;;;;;-147.86;100.00;-17609.17;105904;1251;71725;-42
2024/01/14 07:33:58;;;;;;;30.20;11.80;;;;;;;-147.86;100.00;-17609.17;105895;1251;65396;-43
2024/01/14 07:36:26;;;;;;;27.20;12.00;;;;;;;-147.86;100.00;-17609.17;105904;1254;71478;-43
2024/01/14 07:38:55;;;;;;;32.10;12.00;;;;;;;-147.86;100.00;-17609.17;105968;1254;59755;-42
2024/01/14 07:41:23;;;;;;;29.50;11.70;;;;;;;-147.86;100.00;-17609.17;105944;1256;59788;-43
2024/01/14 07:43:51;;;;;;;31.60;13.70;;;;;;;-147.86;100.00;-17609.17;105862;1256;71484;-42
2024/01/14 07:46:18;;;;;;;28.80;12.90;;;;;;;-147.86;100.00;-17609.17;105912;1251;63702;-42
2024/01/14 07:48:47;;;;;;;27.20;12.30;;;;;;;-147.86;100.00;-17609.17;105916;1254;71411;-42
2024/01/14 07:51:15;;;;;;;26.90;12.60;;;;;;;-147.86;100.00;-17609.17;105924;1254;59832;-42
2024/01/14 07:53:43;;;;;;;33.70;12.20;;;;;;;-147.86;100.00;-17609.17;105911;1257;59807;-42
2024/01/14 07:56:10;;;;;;;35.80;13.30;;;;;;;-147.86;100.00;-17609.17;105908;1256;72120;-42
2024/01/14 07:58:38;;;;;;;23.60;11.50;;;;;;;-147.86;100.00;-17609.17;105905;1257;64015;-41
2024/01/14 08:01:06;;;;;;;26.90;11.90;;;;;;;-147.86;100.00;-17609.17;105868;1254;71443;-43
2024/01/14 08:03:35;;;;;;;24.10;11.70;;;;;;;-147.86;100.00;-17609.17;105908;1254;59696;-43
2024/01/14 08:06:05;;;;;;;24.80;11.10;;;;;;;-147.86;100.00;-17609.17;105921;1256;59717;-42
2024/01/14 08:08:32;;;;;;;24.10;12.30;;;;;;;-147.86;100.00;-17609.17;105961;1251;72902;-42
2024/01/14 08:11:01;;;;;;;24.60;12.00;;;;;;;-147.86;100.00;-17609.17;105878;1251;63925;-43
2024/01/14 08:13:28;;;;;;;28.50;13.10;;;;;;;-147.86;100.00;-17609.17;105910;1254;71410;-42
2024/01/14 08:15:57;;;;;;;26.10;12.50;;;;;;;-147.86;100.00;-17609.17;105890;1254;59752;-42
2024/01/14 08:18:29;;;;;;;30.90;13.60;;;;;;;-147.86;100.00;-17609.17;105897;1257;59557;-43
2024/01/14 08:21:00;;;;;;;25.60;12.30;;;;;;;-147.86;100.00;-17609.17;105964;1251;71742;-42
2024/01/14 08:23:34;;;;;;;29.20;12.80;;;;;;;-147.86;100.00;-17609.17;105915;1256;65149;-42
2024/01/14 08:26:02;;;;;;;33.80;13.90;;;;;;;-147.86;100.00;-17609.17;105872;1254;71596;-43
2024/01/14 08:28:31;;;;;;;26.20;12.80;;;;;;;-147.86;100.00;-17609.17;105928;1257;59838;-42
2024/01/14 08:31:00;;;;;;;26.10;12.70;;;;;;;-147.86;100.00;-17609.17;105903;1257;59554;-42
2024/01/14 08:33:28;;;;;;;25.40;13.00;;;;;;;-147.86;100.00;-17609.17;105888;1256;71347;-42
2024/01/14 08:35:56;;;;;;;29.10;14.00;;;;;;;-147.86;100.00;-17609.17;105883;1251;64108;-42
2024/01/14 08:38:24;;;;;;;30.90;13.70;;;;;;;-147.86;100.00;-17609.17;105940;1257;71331;-42
2024/01/14 08:40:53;;;;;;;30.80;14.70;;;;;;;-147.86;100.00;-17609.17;105900;1252;59716;-41
2024/01/14 08:43:20;;;;;;;25.40;12.80;;;;;;;-147.86;100.00;-17609.17;105872;1257;59808;-42
2024/01/14 08:45:48;;;;;;;30.50;13.10;;;;;;;-147.86;100.00;-17609.17;105868;1257;73169;-42
2024/01/14 08:48:16;;;;;;;26.90;12.50;;;;;;;-147.86;100.00;-17609.17;105887;1251;63931;-42
2024/01/14 08:50:44;;;;;;;25.60;14.00;;;;;;;-147.86;100.00;-17609.17;105874;1254;71477;-43
2024/01/14 08:53:12;;;;;;;29.50;14.30;;;;;;;-147.86;100.00;-17609.17;105890;1257;60076;-42
2024/01/14 08:55:40;;;;;;;27.70;13.30;;;;;;;-147.86;100.00;-17609.17;105920;1251;59893;-43
2024/01/14 08:58:08;;;;;;;28.20;14.80;;;;;;;-147.86;100.00;-17609.17;105935;1251;71824;-43
2024/01/14 09:00:35;;;;;;;28.60;14.10;;;;;;;-147.86;100.00;-17609.17;105882;1251;64017;-42
2024/01/14 09:03:04;;;;;;;26.40;13.90;;;;;;;-147.86;100.00;-17609.17;105896;1254;71422;-43
2024/01/14 09:05:31;;;;;;;30.20;14.80;;;;;;;-147.86;100.00;-17609.17;105889;1255;59755;-42
2024/01/14 09:07:59;;;;;;;24.60;13.70;;;;;;;-147.86;100.00;-17609.17;105883;1256;60058;-43
2024/01/14 09:10:27;;;;;;;28.90;14.70;;;;;;;-147.86;100.00;-17609.17;105959;1256;71803;-41
2024/01/14 09:12:55;;;;;;;27.90;14.60;;;;;;;-147.86;100.00;-17609.17;105866;1252;66542;-43
2024/01/14 09:15:23;;;;;;;29.50;14.20;;;;;;;-147.86;100.00;-17609.17;105870;1253;71415;-43
2024/01/14 09:17:51;;;;;;;27.10;12.80;;;;;;;-147.86;100.00;-17609.17;105884;1257;60460;-41
2024/01/14 09:20:19;;;;;;;27.20;14.40;;;;;;;-147.86;100.00;-17609.17;105927;1256;60501;-43
2024/01/14 09:22:48;;;;;;;25.60;13.00;;;;;;;-147.86;100.00;-17609.17;105962;1251;74702;-42
2024/01/14 09:25:16;;;;;;;28.20;13.40;;;;;;;-147.86;100.00;-17609.17;105917;1257;65729;-42
2024/01/14 09:27:43;;;;;;;25.40;14.00;;;;;;;-147.86;100.00;-17609.17;105922;1254;71392;-42
2024/01/14 09:30:12;;;;;;;25.80;13.10;;;;;;;-147.86;100.00;-17609.17;105864;1257;60508;-42
2024/01/14 09:32:41;;;;;;;25.60;13.10;;;;;;;-147.86;100.00;-17609.17;105906;1251;60498;-42
2024/01/14 09:35:09;;;;;;;26.70;14.10;;;;;;;-147.86;100.00;-17609.17;105919;1251;72580;-42
2024/01/14 09:37:36;;;;;;;25.00;13.80;;;;;;;-147.86;100.00;-17609.17;105919;1256;63981;-41
2024/01/14 09:40:06;;;;;;;29.10;14.30;;;;;;;-147.86;100.00;-17609.17;105879;1253;71480;-42
2024/01/14 09:42:34;;;;;;;27.50;13.30;;;;;;;-147.86;100.00;-17609.17;105914;1257;60901;-42
2024/01/14 09:45:04;;;;;;;22.80;13.30;;;;;;;-147.86;100.00;-17609.17;105917;1256;60501;-44
2024/01/14 09:47:32;;;;;;;24.60;13.60;;;;;;;-147.86;100.00;-17609.17;105937;1256;74085;-45
2024/01/14 09:50:00;;;;;;;25.60;14.20;;;;;;;-147.86;100.00;-17609.17;105927;1256;65117;-45
2024/01/14 09:52:29;;;;;;;26.40;13.90;;;;;;;-147.86;100.00;-17609.17;105895;1251;71803;-45
2024/01/14 09:54:57;;;;;;;30.40;14.10;;;;;;;-147.86;100.00;-17609.17;105919;1257;61202;-45
2024/01/14 09:57:25;;;;;;;21.80;13.10;;;;;;;-147.86;100.00;-17609.17;105916;1251;60919;-46
2024/01/14 09:59:52;;;;;;;22.80;12.80;;;;;;;-147.86;100.00;-17609.17;105875;1251;76002;-43
2024/01/14 10:02:20;;;;;;;23.10;12.40;;;;;;;-147.86;100.00;-17609.17;105901;1257;67267;-44
2024/01/14 10:04:48;;;;;;;27.60;13.20;;;;;;;-147.86;100.00;-17609.17;105763;1251;74376;-44
2024/01/14 10:07:16;;;;;;;25.30;13.60;;;;;;;-147.86;100.00;-17609.17;105887;1256;60367;-45
2024/01/14 10:09:44;;;;;;;25.30;13.20;;;;;;;-147.86;100.00;-17609.17;105711;1259;60886;-46
2024/01/14 10:12:13;;;;;;;24.80;13.90;;;;;;;-147.86;100.00;-17609.17;105890;1257;73790;-43
2024/01/14 10:14:41;;;;;;;24.60;12.80;;;;;;;-147.86;100.00;-17609.17;105945;1251;63907;-44
2024/01/14 10:17:09;;;;;;;23.50;13.00;;;;;;;-147.86;100.00;-17609.17;105873;1256;71701;-43
2024/01/14 10:19:37;;;;;;;25.70;13.20;;;;;;;-147.86;100.00;-17609.17;105880;1255;60613;-44
2024/01/14 10:22:06;;;;;;;27.40;14.20;;;;;;;-147.86;100.00;-17609.17;105972;1256;60491;-43
2024/01/14 10:24:54;;;;;;;24.00;13.30;;;;;;;-147.86;100.00;-17609.17;105885;1257;74264;-44
2024/01/14 10:27:22;;;;;;;24.20;13.10;;;;;;;-147.86;100.00;-17609.17;105950;1257;65547;-44
2024/01/14 10:30:10;;;;;;;24.60;13.50;;;;;;;-147.86;100.00;-17609.17;105876;1254;71423;-43
2024/01/14 10:32:41;;;;;;;26.20;14.10;;;;;;;-147.86;100.00;-17609.17;105793;1260;60549;-43
2024/01/14 10:35:29;;;;;;;27.60;14.10;;;;;;;-147.86;100.00;-17609.17;105909;1251;61868;-49
2024/01/14 10:37:58;;;;;;;25.60;14.70;;;;;;;-147.86;100.00;-17609.17;105897;1251;74100;-44
2024/01/14 10:40:26;;;;;;;24.00;13.60;;;;;;;-147.86;100.00;-17609.17;105914;1251;66286;-46
2024/01/14 10:42:54;;;;;;;26.10;14.10;;;;;;;-147.86;100.00;-17609.17;105936;1251;74844;-45
2024/01/14 10:45:22;;;;;;;25.20;13.50;;;;;;;-147.86;100.00;-17609.17;105888;1257;61521;-44
2024/01/14 10:47:54;;;;;;;24.10;14.10;;;;;;;-147.86;100.00;-17609.17;105730;1252;62358;-46
2024/01/14 10:50:23;;;;;;;27.50;15.00;;;;;;;-147.86;100.00;-17609.17;105929;1257;76119;-44
2024/01/14 10:52:55;;;;;;;28.10;13.70;;;;;;;-147.86;100.00;-17609.17;105909;1251;64892;-46
2024/01/14 10:55:43;;;;;;;24.80;14.10;;;;;;;-147.86;100.00;-17609.17;105718;1258;71285;-45
2024/01/14 10:58:17;;;;;;;25.10;13.90;;;;;;;-147.86;100.00;-17609.17;105930;1251;60910;-45
2024/01/14 11:00:46;;;;;;;24.00;14.40;;;;;;;-147.86;100.00;-17609.17;105935;1253;60348;-44
2024/01/14 11:03:14;;;;;;;24.00;13.20;;;;;;;-147.86;100.00;-17609.17;105923;1256;74716;-44
2024/01/14 11:05:44;;;;;;;25.00;14.30;;;;;;;-147.86;100.00;-17609.17;105964;1257;63935;-45
2024/01/14 11:08:11;;;;;;;23.10;13.70;;;;;;;-147.86;100.00;-17609.17;105928;1257;73519;-45
2024/01/14 11:10:39;;;;;;;21.70;13.00;;;;;;;-147.86;100.00;-17609.17;105863;1255;60492;-45
2024/01/14 11:13:25;;;;;;;22.50;13.50;;;;;;;-147.86;100.00;-17609.17;105922;1257;60629;-43
2024/01/14 11:16:09;;;;;;;21.70;12.60;;;;;;;-147.86;100.00;-17609.17;105919;1251;75977;-44
2024/01/14 11:18:45;;;;;;;21.60;13.50;;;;;;;-147.86;100.00;-17609.17;105981;1251;63994;-42
2024/01/14 11:21:28;;;;;;;24.40;13.90;;;;;;;-147.86;100.00;-17609.17;105910;1256;72519;-45
2024/01/14 11:24:20;;;;;;;21.70;12.90;;;;;;;-147.86;100.00;-17609.17;105937;1251;60444;-44
2024/01/14 11:26:49;;;;;;;21.40;12.60;;;;;;;-147.86;100.00;-17609.17;105897;1257;60352;-46
2024/01/14 11:29:30;;;;;;;22.10;12.10;;;;;;;-147.86;100.00;-17609.17;105938;1251;73849;-45
2024/01/14 11:32:09;;;;;;;24.60;13.40;;;;;;;-147.86;100.00;-17609.17;105956;1256;65477;-44
2024/01/14 11:34:46;;;;;;;28.70;13.00;;;;;;;-147.86;100.00;-17609.17;105952;1257;71396;-43
2024/01/14 11:37:33;;;;;;;22.50;13.20;;;;;;;-147.86;100.00;-17609.17;105949;1254;60612;-43
2024/01/14 11:40:08;;;;;;;20.90;13.20;;;;;;;-147.86;100.00;-17609.17;105948;1251;60607;-46
2024/01/14 11:42:37;;;;;;;22.00;12.80;;;;;;;-147.86;100.00;-17609.17;105914;1253;73274;-46
2024/01/14 11:45:25;;;;;;;23.80;12.80;;;;;;;-147.86;100.00;-17609.17;105928;1257;63922;-44
2024/01/14 11:47:55;;;;;;;21.00;13.40;;;;;;;-147.86;100.00;-17609.17;105763;1256;72695;-45
2024/01/14 11:50:26;;;;;;;23.40;13.80;;;;;;;-147.86;100.00;-17609.17;105901;1257;60533;-45
2024/01/14 11:52:57;;;;;;;23.70;13.80;;;;;;;-147.86;100.00;-17609.17;105947;1251;60553;-45
2024/01/14 11:55:28;;;;;;;20.50;13.00;;;;;;;-147.86;100.00;-17609.17;105930;1254;73785;-45
2024/01/14 11:57:57;;;;;;;20.40;12.70;;;;;;;-147.86;100.00;-17609.17;105916;1257;63967;-45
2024/01/14 12:00:25;;;;;;;23.60;12.50;;;;;;;-147.86;100.00;-17609.17;105875;1257;72634;-47
2024/01/14 12:03:10;;;;;;;18.80;12.50;;;;;;;-147.86;100.00;-17609.17;105713;1260;60510;-45
2024/01/14 12:05:40;;;;;;;27.50;13.10;;;;;;;-147.86;100.00;-17609.17;105902;1257;60437;-48
2024/01/14 12:08:08;;;;;;;24.60;12.80;;;;;;;-147.86;100.00;-17609.17;105933;1257;73921;-44
2024/01/14 12:10:36;;;;;;;23.30;13.40;;;;;;;-147.86;100.00;-17609.17;105970;1251;63953;-44
2024/01/14 12:13:09;;;;;;;23.20;13.50;;;;;;;-147.86;100.00;-17609.17;105895;1256;71388;-46
2024/01/14 12:15:37;;;;;;;23.70;14.10;;;;;;;-147.86;100.00;-17609.17;105941;1254;60879;-45
2024/01/14 12:18:07;;;;;;;23.20;13.20;;;;;;;-147.86;100.00;-17609.17;105939;1257;61202;-47
2024/01/14 12:20:36;;;;;;;22.80;13.10;;;;;;;-147.86;100.00;-17609.17;105957;1256;74172;-46
2024/01/14 12:23:04;;;;;;;25.40;12.90;;;;;;;-147.86;100.00;-17609.17;105897;1251;67177;-43
2024/01/14 12:25:35;;;;;;;24.40;13.50;;;;;;;-147.86;100.00;-17609.17;105913;1257;72767;-43
2024/01/14 12:28:04;;;;;;;22.80;14.20;;;;;;;-147.86;100.00;-17609.17;105865;1257;61986;-44
2024/01/14 12:30:34;;;;;;;21.90;12.60;;;;;;;-147.86;100.00;-17609.17;105933;1252;60450;-44
2024/01/14 12:33:06;;;;;;;21.00;13.00;;;;;;;-147.86;100.00;-17609.17;105897;1256;76113;-44